createdAt,value
2018-05-26T00:01:14.320Z,16.40
2018-05-26T00:03:41.778Z,16.40
2018-05-26T00:06:09.232Z,16.40
2018-05-26T00:08:36.799Z,16.30
2018-05-26T00:11:04.279Z,16.20
2018-05-26T00:13:31.941Z,16.10
2018-05-26T00:15:59.384Z,16.20
2018-05-26T00:18:26.819Z,16.10
2018-05-26T00:20:54.275Z,16.00
2018-05-26T00:23:21.709Z,16.20
2018-05-26T00:25:49.950Z,16.20
2018-05-26T00:28:17.383Z,16.20
2018-05-26T00:30:44.847Z,16.10
2018-05-26T00:33:12.301Z,16.00
2018-05-26T00:35:39.749Z,16.00
2018-05-26T00:38:07.188Z,16.00
2018-05-26T00:40:34.658Z,15.90
2018-05-26T00:43:02.084Z,15.80
2018-05-26T00:45:30.302Z,15.80
2018-05-26T00:47:57.776Z,15.80
2018-05-26T00:50:25.241Z,15.90
2018-05-26T00:52:52.689Z,15.90
2018-05-26T00:55:20.135Z,15.90
2018-05-26T00:57:47.600Z,16.00
2018-05-26T01:00:15.059Z,15.90
2018-05-26T01:02:42.763Z,15.80
2018-05-26T01:05:10.984Z,15.90
2018-05-26T01:07:38.440Z,15.90
2018-05-26T01:10:05.891Z,15.80
2018-05-26T01:12:33.350Z,15.70
2018-05-26T01:15:00.827Z,15.80
2018-05-26T01:17:28.261Z,15.70
2018-05-26T01:19:55.700Z,15.60
2018-05-26T01:22:23.155Z,15.50
2018-05-26T01:24:50.637Z,15.60
2018-05-26T01:27:18.087Z,15.60
2018-05-26T01:29:45.533Z,15.50
2018-05-26T01:32:12.996Z,15.60
2018-05-26T01:34:40.464Z,15.60
2018-05-26T01:37:07.917Z,15.60
2018-05-26T01:39:35.367Z,15.70
2018-05-26T01:42:02.827Z,15.60
2018-05-26T01:44:30.282Z,15.50
2018-05-26T01:46:57.756Z,15.50
2018-05-26T01:49:25.232Z,15.50
2018-05-26T01:51:52.680Z,15.50
2018-05-26T01:54:20.175Z,15.50
2018-05-26T01:56:54.119Z,15.30
2018-05-26T01:59:21.588Z,15.30
2018-05-26T02:01:49.037Z,15.40
2018-05-26T02:04:16.540Z,15.40
2018-05-26T02:06:43.971Z,15.30
2018-05-26T02:09:11.427Z,15.20
2018-05-26T02:11:38.857Z,15.30
2018-05-26T02:14:06.307Z,15.20
2018-05-26T02:16:34.520Z,15.20
2018-05-26T02:19:01.963Z,15.20
2018-05-26T02:21:29.421Z,15.20
2018-05-26T02:23:56.880Z,15.10
2018-05-26T02:26:24.326Z,15.10
2018-05-26T02:28:51.772Z,15.20
2018-05-26T02:31:19.253Z,15.20
2018-05-26T02:33:46.684Z,15.20
2018-05-26T02:36:14.944Z,15.20
2018-05-26T02:38:42.345Z,15.20
2018-05-26T02:41:10.564Z,15.00
2018-05-26T02:43:38.023Z,15.00
2018-05-26T02:46:05.473Z,14.90
2018-05-26T02:48:33.688Z,14.90
2018-05-26T02:51:01.117Z,14.80
2018-05-26T02:53:29.339Z,14.80
2018-05-26T02:55:56.793Z,14.80
2018-05-26T02:58:24.248Z,14.90
2018-05-26T03:00:51.713Z,14.80
2018-05-26T03:03:19.135Z,14.90
2018-05-26T03:05:53.144Z,14.70
2018-05-26T03:08:27.099Z,14.70
2018-05-26T03:11:00.290Z,14.70
2018-05-26T03:13:33.412Z,14.80
2018-05-26T03:29:25.269Z,14.80
2018-05-26T03:31:53.639Z,14.70
2018-05-26T03:34:21.851Z,14.60
2018-05-26T03:36:49.299Z,14.60
2018-05-26T03:39:16.758Z,14.70
2018-05-26T03:41:44.196Z,14.70
2018-05-26T03:44:11.635Z,14.70
2018-05-26T03:46:39.851Z,14.60
2018-05-26T03:49:07.287Z,14.60
2018-05-26T03:51:34.735Z,14.60
2018-05-26T03:54:02.756Z,14.70
2018-05-26T03:56:42.149Z,14.60
2018-05-26T03:59:17.459Z,14.60
2018-05-26T04:01:44.920Z,14.70
2018-05-26T04:04:12.371Z,14.70
2018-05-26T04:06:39.824Z,14.70
2018-05-26T04:09:07.284Z,14.70
2018-05-26T04:11:36.230Z,14.70
2018-05-26T04:14:03.660Z,14.70
2018-05-26T04:16:31.161Z,14.80
2018-05-26T04:18:58.583Z,14.80
2018-05-26T04:21:26.038Z,14.80
2018-05-26T04:23:53.482Z,14.80
2018-05-26T04:26:21.680Z,14.80
2018-05-26T04:28:49.129Z,14.80
2018-05-26T04:31:16.572Z,14.80
2018-05-26T04:33:44.783Z,14.90
2018-05-26T04:36:12.231Z,14.90
2018-05-26T04:38:39.694Z,14.90
2018-05-26T04:41:07.139Z,14.90
2018-05-26T04:43:34.591Z,14.90
2018-05-26T04:46:02.056Z,14.80
2018-05-26T04:48:31.568Z,15.00
2018-05-26T04:50:59.018Z,15.00
2018-05-26T04:53:26.459Z,15.00
2018-05-26T04:55:54.663Z,15.10
2018-05-26T04:58:22.125Z,15.10
2018-05-26T05:00:49.578Z,15.20
2018-05-26T05:03:17.003Z,15.30
2018-05-26T05:05:45.250Z,15.30
2018-05-26T05:08:12.645Z,15.30
2018-05-26T05:10:40.667Z,15.30
2018-05-26T05:13:08.115Z,15.30
2018-05-26T05:15:35.548Z,15.30
2018-05-26T05:18:03.003Z,15.40
2018-05-26T05:20:30.448Z,15.50
2018-05-26T05:22:57.895Z,15.50
2018-05-26T05:25:25.372Z,15.50
2018-05-26T05:27:52.837Z,15.60
2018-05-26T05:30:20.284Z,15.60
2018-05-26T05:32:47.722Z,15.70
2018-05-26T05:35:15.935Z,15.80
2018-05-26T05:37:43.381Z,15.80
2018-05-26T05:40:10.808Z,15.80
2018-05-26T05:42:38.252Z,15.80
2018-05-26T05:45:06.480Z,16.00
2018-05-26T05:47:33.920Z,16.00
2018-05-26T05:50:01.365Z,16.10
2018-05-26T05:52:28.815Z,16.30
2018-05-26T05:54:56.269Z,16.50
2018-05-26T05:57:24.498Z,16.70
2018-05-26T05:59:52.758Z,16.90
2018-05-26T06:02:20.916Z,17.10
2018-05-26T06:04:48.360Z,17.10
2018-05-26T06:07:16.580Z,17.40
2018-05-26T06:09:44.013Z,17.40
2018-05-26T06:12:11.452Z,17.50
2018-05-26T06:14:38.892Z,17.80
2018-05-26T06:17:07.107Z,17.90
2018-05-26T06:19:34.563Z,17.90
2018-05-26T06:22:02.027Z,18.10
2018-05-26T06:24:29.487Z,18.20
2018-05-26T06:26:56.941Z,18.30
2018-05-26T06:29:24.403Z,18.50
2018-05-26T06:31:51.969Z,18.60
2018-05-26T06:34:19.302Z,18.70
2018-05-26T06:36:47.541Z,18.80
2018-05-26T06:39:15.756Z,19.00
2018-05-26T06:41:43.227Z,19.10
2018-05-26T06:44:10.689Z,19.10
2018-05-26T06:46:38.213Z,19.30
2018-05-26T06:49:05.613Z,19.30
2018-05-26T06:51:33.051Z,19.50
2018-05-26T06:54:00.507Z,19.50
2018-05-26T06:56:27.959Z,19.70
2018-05-26T06:58:55.409Z,19.60
2018-05-26T07:01:22.868Z,19.80
2018-05-26T07:03:50.321Z,19.80
2018-05-26T07:06:17.775Z,20.00
2018-05-26T07:08:45.225Z,20.20
2018-05-26T07:11:12.688Z,20.40
2018-05-26T07:13:40.127Z,20.60
2018-05-26T07:16:07.590Z,20.60
2018-05-26T07:18:35.051Z,20.80
2018-05-26T07:21:02.487Z,20.90
2018-05-26T07:23:30.723Z,21.00
2018-05-26T07:25:58.196Z,21.00
2018-05-26T07:28:25.664Z,20.80
2018-05-26T07:30:53.095Z,20.70
2018-05-26T07:33:20.529Z,20.70
2018-05-26T07:35:47.968Z,20.70
2018-05-26T07:38:15.440Z,20.60
2018-05-26T07:40:42.883Z,20.70
2018-05-26T07:43:10.353Z,20.70
2018-05-26T07:45:37.779Z,20.90
2018-05-26T07:48:06.000Z,21.20
2018-05-26T07:50:33.455Z,21.20
2018-05-26T07:53:00.887Z,21.40
2018-05-26T07:55:28.334Z,21.60
2018-05-26T07:57:55.783Z,21.60
2018-05-26T08:00:24.037Z,21.70
2018-05-26T08:02:51.425Z,21.70
2018-05-26T08:05:18.884Z,21.90
2018-05-26T08:07:47.078Z,21.90
2018-05-26T08:10:14.536Z,21.90
2018-05-26T08:12:41.964Z,22.00
2018-05-26T08:15:10.176Z,22.20
2018-05-26T08:17:37.642Z,22.20
2018-05-26T08:20:05.628Z,22.20
2018-05-26T08:22:33.096Z,22.40
2018-05-26T08:25:00.532Z,22.50
2018-05-26T08:27:27.956Z,22.40
2018-05-26T08:29:55.420Z,22.40
2018-05-26T08:32:22.847Z,22.00
2018-05-26T08:34:51.080Z,22.30
2018-05-26T08:37:18.524Z,22.30
2018-05-26T08:39:45.980Z,22.30
2018-05-26T08:42:14.587Z,22.50
2018-05-26T08:44:42.031Z,22.50
2018-05-26T08:47:09.471Z,22.60
2018-05-26T08:49:36.925Z,22.60
2018-05-26T08:52:04.364Z,22.80
2018-05-26T08:54:31.826Z,22.80
2018-05-26T08:56:59.268Z,22.70
2018-05-26T08:59:27.488Z,22.90
2018-05-26T09:01:54.929Z,22.90
2018-05-26T09:04:22.380Z,23.10
2018-05-26T09:06:49.860Z,23.10
2018-05-26T09:09:17.326Z,23.20
2018-05-26T09:11:44.755Z,23.30
2018-05-26T09:14:12.208Z,23.30
2018-05-26T09:16:39.644Z,23.50
2018-05-26T09:19:07.894Z,23.60
2018-05-26T09:21:35.332Z,23.60
2018-05-26T09:24:02.790Z,23.80
2018-05-26T09:26:30.221Z,23.80
2018-05-26T09:28:57.680Z,23.80
2018-05-26T09:31:25.254Z,23.90
2018-05-26T09:33:52.676Z,23.90
2018-05-26T09:36:20.127Z,23.90
2018-05-26T09:38:47.576Z,23.90
2018-05-26T09:41:15.793Z,23.90
2018-05-26T09:43:43.263Z,23.90
2018-05-26T09:46:11.466Z,23.70
2018-05-26T09:48:38.900Z,23.70
2018-05-26T09:51:13.793Z,23.80
2018-05-26T09:53:41.250Z,24.00
2018-05-26T09:56:08.750Z,24.00
2018-05-26T09:58:36.912Z,24.30
2018-05-26T10:01:04.357Z,24.20
2018-05-26T10:03:31.781Z,24.20
2018-05-26T10:05:59.245Z,24.40
2018-05-26T10:08:26.708Z,24.60
2018-05-26T10:10:54.138Z,24.40
2018-05-26T10:13:22.352Z,24.40
2018-05-26T10:15:50.000Z,24.40
2018-05-26T10:18:17.456Z,24.40
2018-05-26T10:20:44.903Z,24.50
2018-05-26T10:23:13.130Z,24.50
2018-05-26T10:25:40.583Z,24.50
2018-05-26T10:28:08.009Z,24.60
2018-05-26T10:30:35.459Z,24.60
2018-05-26T10:33:02.895Z,24.70
2018-05-26T10:35:31.162Z,24.80
2018-05-26T10:37:58.547Z,24.80
2018-05-26T10:40:26.003Z,24.90
2018-05-26T10:42:53.436Z,25.00
2018-05-26T10:45:33.487Z,25.20
2018-05-26T10:48:01.704Z,25.20
2018-05-26T10:50:29.151Z,25.10
2018-05-26T10:52:56.595Z,25.20
2018-05-26T10:55:24.057Z,25.20
2018-05-26T10:57:52.247Z,25.30
2018-05-26T11:00:19.711Z,25.20
2018-05-26T11:02:47.168Z,25.40
2018-05-26T11:05:14.611Z,25.30
2018-05-26T11:07:42.046Z,25.40
2018-05-26T11:10:10.259Z,25.40
2018-05-26T11:12:37.701Z,25.40
2018-05-26T11:15:05.146Z,25.30
2018-05-26T11:17:32.583Z,25.40
2018-05-26T11:20:00.827Z,25.40
2018-05-26T11:22:28.259Z,25.40
2018-05-26T11:24:55.695Z,25.30
2018-05-26T11:27:23.152Z,25.40
2018-05-26T11:29:50.626Z,25.40
2018-05-26T11:32:18.059Z,25.50
2018-05-26T11:34:46.259Z,25.70
2018-05-26T11:37:13.712Z,25.60
2018-05-26T11:39:41.164Z,25.70
2018-05-26T11:42:08.605Z,25.70
2018-05-26T11:44:36.823Z,25.70
2018-05-26T11:47:04.257Z,25.60
2018-05-26T11:49:31.709Z,25.70
2018-05-26T11:51:59.143Z,25.80
2018-05-26T11:54:27.364Z,25.80
2018-05-26T11:56:54.828Z,25.80
2018-05-26T11:59:22.272Z,25.70
2018-05-26T12:01:50.696Z,25.70
2018-05-26T12:04:18.097Z,25.70
2018-05-26T12:06:45.539Z,25.80
2018-05-26T12:09:13.003Z,25.80
2018-05-26T12:11:40.510Z,25.70
2018-05-26T12:14:07.964Z,25.80
2018-05-26T12:16:35.404Z,25.90
2018-05-26T12:19:02.856Z,25.80
2018-05-26T12:21:30.302Z,25.80
2018-05-26T12:23:57.772Z,25.80
2018-05-26T12:26:25.215Z,25.80
2018-05-26T12:28:52.644Z,25.90
2018-05-26T12:31:20.980Z,25.90
2018-05-26T12:33:48.426Z,25.80
2018-05-26T12:36:15.892Z,25.90
2018-05-26T12:38:43.352Z,26.00
2018-05-26T12:41:10.797Z,26.00
2018-05-26T12:43:38.255Z,26.00
2018-05-26T12:46:05.704Z,26.10
2018-05-26T12:48:33.155Z,26.10
2018-05-26T12:51:00.604Z,26.20
2018-05-26T12:53:28.063Z,26.10
2018-05-26T12:55:55.535Z,26.00
2018-05-26T12:58:23.002Z,25.80
2018-05-26T13:00:50.439Z,25.80
2018-05-26T13:03:17.895Z,25.90
2018-05-26T13:05:45.377Z,26.00
2018-05-26T13:08:12.820Z,26.00
2018-05-26T13:10:40.297Z,26.20
2018-05-26T13:13:07.774Z,26.20
2018-05-26T13:15:35.229Z,26.20
2018-05-26T13:18:02.693Z,26.40
2018-05-26T13:20:30.147Z,26.40
2018-05-26T13:22:57.600Z,26.40
2018-05-26T13:25:25.055Z,26.40
2018-05-26T13:27:52.488Z,26.40
2018-05-26T13:30:19.939Z,26.50
2018-05-26T13:32:47.379Z,26.40
2018-05-26T13:35:14.854Z,26.50
2018-05-26T13:37:42.274Z,26.50
2018-05-26T13:40:10.499Z,26.30
2018-05-26T13:42:37.971Z,26.20
2018-05-26T13:45:05.405Z,26.50
2018-05-26T13:47:32.856Z,26.60
2018-05-26T13:50:00.294Z,26.60
2018-05-26T13:52:27.773Z,26.50
2018-05-26T13:54:55.247Z,26.50
2018-05-26T13:57:23.429Z,26.50
2018-05-26T13:59:50.896Z,26.40
2018-05-26T14:02:18.335Z,26.40
2018-05-26T14:04:47.408Z,26.60
2018-05-26T14:07:14.882Z,26.60
2018-05-26T14:09:42.330Z,26.60
2018-05-26T14:12:09.768Z,26.50
2018-05-26T14:14:37.212Z,26.60
2018-05-26T14:17:04.651Z,26.50
2018-05-26T14:19:32.887Z,26.30
2018-05-26T14:22:00.345Z,26.20
2018-05-26T14:24:27.794Z,26.00
2018-05-26T14:26:55.250Z,25.80
2018-05-26T14:29:22.679Z,25.70
2018-05-26T14:32:09.928Z,25.60
2018-05-26T14:34:37.391Z,25.50
2018-05-26T14:37:04.836Z,25.30
2018-05-26T14:39:32.288Z,25.10
2018-05-26T14:41:59.719Z,25.10
2018-05-26T14:44:27.179Z,25.00
2018-05-26T14:46:54.648Z,24.90
2018-05-26T14:49:22.088Z,24.90
2018-05-26T14:51:49.527Z,24.80
2018-05-26T14:54:17.764Z,24.80
2018-05-26T14:56:45.212Z,24.80
2018-05-26T14:59:12.770Z,24.70
2018-05-26T15:01:40.211Z,24.70
2018-05-26T15:04:07.673Z,24.60
2018-05-26T15:06:35.133Z,24.60
2018-05-26T15:09:02.587Z,24.70
2018-05-26T15:11:30.047Z,24.60
2018-05-26T15:13:57.500Z,24.60
2018-05-26T15:16:24.961Z,24.50
2018-05-26T15:18:52.418Z,24.50
2018-05-26T15:21:20.808Z,24.50
2018-05-26T15:23:48.260Z,24.50
2018-05-26T15:26:15.720Z,24.50
2018-05-26T15:28:43.172Z,24.60
2018-05-26T15:31:10.612Z,24.60
2018-05-26T15:33:38.083Z,24.60
2018-05-26T15:36:05.516Z,24.60
2018-05-26T15:38:32.967Z,24.60
2018-05-26T15:41:01.196Z,24.60
2018-05-26T15:43:28.659Z,24.60
2018-05-26T15:45:56.104Z,24.60
2018-05-26T15:48:23.551Z,24.60
2018-05-26T15:50:57.205Z,24.60
2018-05-26T15:53:24.660Z,24.60
2018-05-26T15:55:52.098Z,24.60
2018-05-26T15:58:19.555Z,24.50
2018-05-26T16:00:46.992Z,24.50
2018-05-26T16:03:14.447Z,24.50
2018-05-26T16:05:41.904Z,24.50
2018-05-26T16:08:09.368Z,24.50
2018-05-26T16:10:37.563Z,24.50
2018-05-26T16:13:05.020Z,24.50
2018-05-26T16:15:32.458Z,24.60
2018-05-26T16:17:59.927Z,24.60
2018-05-26T16:20:27.367Z,24.70
2018-05-26T16:22:54.843Z,24.70
2018-05-26T16:25:22.271Z,24.80
2018-05-26T16:27:53.034Z,25.00
2018-05-26T16:30:20.479Z,25.10
2018-05-26T16:32:47.943Z,25.20
2018-05-26T16:35:15.380Z,25.30
2018-05-26T16:37:42.832Z,25.40
2018-05-26T16:40:10.277Z,25.50
2018-05-26T16:42:37.730Z,25.80
2018-05-26T16:45:05.204Z,26.00
2018-05-26T16:47:32.641Z,26.40
2018-05-26T16:50:00.667Z,26.60
2018-05-26T16:52:28.110Z,26.90
2018-05-26T16:54:55.571Z,27.30
2018-05-26T16:57:23.024Z,27.60
2018-05-26T16:59:50.476Z,27.80
2018-05-26T17:02:17.928Z,27.80
2018-05-26T17:04:45.378Z,27.70
2018-05-26T17:07:18.604Z,27.10
2018-05-26T17:09:46.132Z,27.20
2018-05-26T17:12:13.577Z,27.10
2018-05-26T17:14:41.038Z,27.10
2018-05-26T17:17:08.524Z,27.10
2018-05-26T17:19:35.999Z,27.00
2018-05-26T17:22:03.475Z,26.90
2018-05-26T17:24:31.687Z,26.90
2018-05-26T17:26:59.137Z,26.80
2018-05-26T17:29:26.572Z,27.00
2018-05-26T17:31:54.797Z,27.20
2018-05-26T17:34:22.254Z,27.20
2018-05-26T17:36:49.692Z,27.30
2018-05-26T17:39:17.143Z,27.20
2018-05-26T17:41:44.587Z,26.90
2018-05-26T17:44:12.808Z,26.30
2018-05-26T17:46:40.244Z,26.30
2018-05-26T17:49:07.719Z,26.20
2018-05-26T17:51:35.199Z,26.20
2018-05-26T17:54:02.651Z,26.10
2018-05-26T17:56:30.742Z,26.00
2018-05-26T17:58:58.978Z,25.70
2018-05-26T18:01:26.420Z,25.70
2018-05-26T18:03:53.887Z,25.70
2018-05-26T18:06:21.341Z,25.50
2018-05-26T18:08:48.777Z,25.40
2018-05-26T18:11:16.399Z,25.30
2018-05-26T18:13:43.858Z,25.10
2018-05-26T18:16:12.061Z,24.90
2018-05-26T18:18:39.691Z,24.80
2018-05-26T18:21:07.158Z,24.70
2018-05-26T18:23:35.371Z,24.60
2018-05-26T18:26:02.907Z,24.60
2018-05-26T18:28:30.300Z,24.60
2018-05-26T18:30:57.746Z,24.50
2018-05-26T18:33:25.188Z,24.40
2018-05-26T18:35:52.618Z,24.30
2018-05-26T18:38:20.845Z,24.00
2018-05-26T18:40:48.755Z,24.00
2018-05-26T18:43:16.188Z,23.90
2018-05-26T18:45:43.638Z,23.70
2018-05-26T18:48:11.093Z,23.60
2018-05-26T18:50:38.531Z,23.50
2018-05-26T18:53:06.003Z,23.40
2018-05-26T18:55:33.449Z,23.30
2018-05-26T18:58:00.891Z,23.10
2018-05-26T19:00:28.336Z,22.90
2018-05-26T19:02:55.821Z,22.90
2018-05-26T19:05:23.248Z,22.80
2018-05-26T19:07:50.685Z,22.70
2018-05-26T19:10:18.908Z,22.40
2018-05-26T19:12:46.358Z,22.40
2018-05-26T19:15:23.467Z,22.20
2018-05-26T19:17:50.907Z,22.10
2018-05-26T19:20:18.370Z,22.10
2018-05-26T19:22:45.815Z,22.00
2018-05-26T19:25:13.276Z,21.80
2018-05-26T19:27:40.719Z,21.80
2018-05-26T19:30:08.172Z,21.70
2018-05-26T19:32:35.603Z,21.60
2018-05-26T19:35:03.835Z,21.50
2018-05-26T19:37:31.300Z,21.50
2018-05-26T19:39:58.727Z,21.50
2018-05-26T19:42:26.171Z,21.40
2018-05-26T19:44:53.624Z,21.30
2018-05-26T19:47:21.070Z,21.10
2018-05-26T19:49:49.315Z,21.00
2018-05-26T19:52:16.766Z,21.00
2018-05-26T19:54:44.200Z,21.00
2018-05-26T19:57:11.645Z,20.90
2018-05-26T19:59:39.106Z,20.90
2018-05-26T20:02:06.558Z,20.80
2018-05-26T20:04:34.010Z,20.80
2018-05-26T20:07:01.468Z,20.70
2018-05-26T20:09:28.923Z,20.60
2018-05-26T20:11:56.420Z,20.60
2018-05-26T20:14:23.831Z,20.50
2018-05-26T20:16:51.289Z,20.50
2018-05-26T20:19:18.819Z,20.30
2018-05-26T20:21:46.971Z,20.10
2018-05-26T20:24:14.435Z,20.10
2018-05-26T20:26:41.874Z,20.10
2018-05-26T20:29:09.317Z,20.10
2018-05-26T20:31:36.767Z,20.10
2018-05-26T20:34:04.216Z,20.00
2018-05-26T20:36:31.660Z,20.10
2018-05-26T20:38:59.902Z,20.00
2018-05-26T20:41:27.341Z,20.00
2018-05-26T20:43:54.806Z,19.90
2018-05-26T20:46:22.242Z,19.80
2018-05-26T20:48:49.724Z,19.80
2018-05-26T20:51:17.163Z,19.80
2018-05-26T20:53:44.630Z,19.70
2018-05-26T20:56:12.059Z,19.70
2018-05-26T20:58:39.524Z,19.70
2018-05-26T21:01:06.959Z,19.60
2018-05-26T21:03:34.407Z,19.60
2018-05-26T21:06:02.640Z,19.50
2018-05-26T21:08:30.096Z,19.50
2018-05-26T21:10:57.550Z,19.50
2018-05-26T21:13:24.989Z,19.40
2018-05-26T21:15:52.436Z,19.30
2018-05-26T21:18:19.895Z,19.30
2018-05-26T21:20:47.327Z,19.30
2018-05-26T21:23:14.767Z,19.30
2018-05-26T21:25:42.982Z,19.10
2018-05-26T21:28:10.428Z,19.10
2018-05-26T21:30:37.891Z,19.10
2018-05-26T21:33:05.346Z,19.00
2018-05-26T21:35:32.783Z,19.00
2018-05-26T21:38:01.012Z,19.00
2018-05-26T21:40:28.452Z,18.90
2018-05-26T21:42:55.927Z,18.90
2018-05-26T21:45:23.355Z,18.90
2018-05-26T21:47:50.800Z,18.80
2018-05-26T21:50:18.264Z,18.70
2018-05-26T21:52:45.723Z,18.70
2018-05-26T21:55:13.148Z,18.70
2018-05-26T21:57:41.368Z,18.70
2018-05-26T22:00:09.597Z,18.70
2018-05-26T22:02:37.813Z,18.70
2018-05-26T22:05:05.260Z,18.60
2018-05-26T22:07:32.723Z,18.60
2018-05-26T22:10:00.159Z,18.70
2018-05-26T22:12:27.596Z,18.70
2018-05-26T22:14:55.811Z,18.70
2018-05-26T22:17:23.243Z,18.60
2018-05-26T22:19:51.460Z,18.50
2018-05-26T22:22:18.911Z,18.50
2018-05-26T22:24:46.391Z,18.60
2018-05-26T22:27:13.831Z,18.50
2018-05-26T22:29:41.260Z,18.40
2018-05-26T22:32:08.946Z,18.30
2018-05-26T22:34:36.382Z,18.30
2018-05-26T22:37:03.843Z,18.30
2018-05-26T22:39:31.317Z,18.20
2018-05-26T22:41:58.755Z,18.30
2018-05-26T22:44:26.191Z,18.30
2018-05-26T22:46:54.423Z,18.20
2018-05-26T22:49:21.859Z,18.20
2018-05-26T22:51:49.296Z,18.10
2018-05-26T22:54:16.752Z,18.20
2018-05-26T22:56:44.199Z,18.20
2018-05-26T22:59:11.634Z,18.20
2018-05-26T23:01:39.084Z,18.20
2018-05-26T23:04:06.547Z,18.10
2018-05-26T23:06:34.609Z,18.10
2018-05-26T23:09:02.068Z,18.10
2018-05-26T23:11:29.517Z,18.10
2018-05-26T23:13:57.726Z,17.90
2018-05-26T23:16:26.050Z,17.90
2018-05-26T23:18:53.875Z,17.90
2018-05-26T23:21:22.087Z,17.90
2018-05-26T23:23:49.525Z,17.90
2018-05-26T23:26:17.164Z,17.80
2018-05-26T23:28:45.387Z,17.90
2018-05-26T23:31:12.843Z,17.90
2018-05-26T23:33:40.280Z,17.90
2018-05-26T23:36:07.711Z,17.90
2018-05-26T23:38:36.028Z,17.80
2018-05-26T23:41:03.486Z,17.70
2018-05-26T23:43:30.935Z,17.70
2018-05-26T23:45:58.393Z,17.60
2018-05-26T23:48:25.851Z,17.70
2018-05-26T23:50:53.311Z,17.60
2018-05-26T23:53:20.744Z,17.50
2018-05-26T23:55:48.227Z,17.50
2018-05-26T23:58:15.671Z,17.50
